This is the latest recevied weather packets stored in our database for station/object HK6LRQ-21. If no packets are shown the sender has not sent any weather packets the latest 10 day(s).
| Time | Temp. | Humidity | Pressure | Rain* | Wind** | Luminosity | Snow |
|---|---|---|---|---|---|---|---|
| 1787411900 | 18.33° C | 87% | 1016 hPa | 0 mm | - | - | - |
| 1787410696 | 18.33° C | 87% | 1016 hPa | 0 mm | - | - | - |
| 1787409495 | 17.22° C | 83% | 1016 hPa | 0 mm | - | - | - |
| 1787408294 | 18.33° C | 81% | 1016 hPa | 0 mm | - | - | - |
| 1787407093 | 15° C | 75% | 1016 hPa | 0 mm | - | - | - |
| 1787405892 | 15° C | 76% | 1016 hPa | 0 mm | - | - | - |
| 1787404691 | 16.11° C | 80% | 1016 hPa | 0 mm | - | - | - |
| 1787403490 | 13.89° C | 74% | 1016 hPa | 0 mm | - | - | - |
| 1787402289 | 13.89° C | 80% | 1016 hPa | 0 mm | - | - | - |
| 1787401088 | 15° C | 77% | 1016 hPa | 0 mm | - | - | - |
| 1787399887 | 16.11° C | 71% | 1017 hPa | 0 mm | - | - | - |
| 1787398686 | 11.11° C | 62% | 1017 hPa | 0 mm | - | - | - |
| 1787397485 | 11.11° C | 62% | 1016 hPa | 0 mm | - | - | - |
| 1787396284 | 11.11° C | 62% | 1017 hPa | 0 mm | - | - | - |
| 1787395083 | 11.11° C | 62% | 1017 hPa | 0 mm | - | - | - |
| 1787393882 | 11.11° C | 62% | 1016 hPa | 0 mm | - | - | - |
| 1787392681 | 11.11° C | 62% | 1016 hPa | 0 mm | - | - | - |
| 1787391480 | 11.11° C | 62% | 1016 hPa | 0 mm | - | - | - |
| 1787390279 | 11.67° C | 62% | 1015 hPa | 0 mm | - | - | - |
| 1787389078 | 11.67° C | 62% | 1016 hPa | 0 mm | - | - | - |
| 1787387877 | 11.11° C | 62% | 1016 hPa | 0 mm | - | - | - |
| 1787386676 | 12.22° C | 62% | 1015 hPa | 0 mm | - | - | - |
| 1787385475 | 11.11° C | 62% | 1016 hPa | 0 mm | - | - | - |
| 1787384274 | 12.22° C | 62% | 1016 hPa | 0 mm | - | - | - |
| 1787383073 | 11.67° C | 62% | 1016 hPa | 0 mm | - | - | - |
* Rain latest hour (hover to see other rain measurements)
** Current wind speed in m/s (hover to see current wind gust speed)